Jo Spirit — LARU5 — position and weather

sailwx.info

Track history (hours):
 
Tides and Currents Weather Stations Pressure Air Temp Water Temp Dewpoint Dewpoint Depression Visibility Wind Speed Wind Dir Waves Ship Positions

Jo Spirit

Last reported at 2017-Oct-02 15:21 UTC. Time now 2017-Oct-18 02:35 UTC.
Position N 16°16' W 062°42'.
Warning: this ship's position is 15 days out of date.

Length 107 m; draft 5 m.

Type: Ship (hazmat cat C). MMSI: 257826000.

Date/timePositionNaut miles runAvg speedWind from/ knotsBaromVisibWave heightAir tempDewpointWater temp
2017-Oct-02 15:21N 16°16' W 062°42'411.8
2017-Oct-02 15:00N 16°18' W 062°38'1511.7
2017-Oct-02 13:46N 16°23' W 062°24'311.7
2017-Oct-02 13:30N 16°24' W 062°21'611.7
2017-Oct-02 13:00N 16°26' W 062°15'611.7
2017-Oct-02 12:30N 16°28' W 062°10'611.7
2017-Oct-02 12:00N 16°30' W 062°04'611.7
2017-Oct-02 11:30N 16°33' W 061°58'1411.9
2017-Oct-02 10:21N 16°38' W 061°45'411.8
2017-Oct-02 10:00N 16°39' W 061°41'3212.0
2017-Oct-02 07:21N 16°51' W 061°11'412.1
2017-Oct-02 07:00N 16°53' W 061°06'  
2017-Sep-23 22:13N 32°47' W 018°07'413.6
2017-Sep-23 21:55N 32°49' W 018°02'613.6
2017-Sep-23 21:30N 32°51' W 017°56'813.8
2017-Sep-23 20:54N 32°54' W 017°47'  
Track history (hours):
 
Tides and Currents Weather Stations Pressure Air Temp Water Temp Dewpoint Dewpoint Depression Visibility Wind Speed Wind Dir Waves Ship Positions

Jo Spirit

Last reported at 2017-Oct-02 15:21 UTC. Time now 2017-Oct-18 02:35 UTC.
Position N 16°16' W 062°42'.
Warning: this ship's position is 15 days out of date.

Length 107 m; draft 5 m.

Type: Ship (hazmat cat C). MMSI: 257826000.

Date/timePositionNaut miles runAvg speedWind from/ knotsBaromVisibWave heightAir tempDewpointWater temp
2017-Oct-02 15:21N 16°16' W 062°42'411.8
2017-Oct-02 15:00N 16°18' W 062°38'1511.7
2017-Oct-02 13:46N 16°23' W 062°24'311.7
2017-Oct-02 13:30N 16°24' W 062°21'611.7
2017-Oct-02 13:00N 16°26' W 062°15'611.7
2017-Oct-02 12:30N 16°28' W 062°10'611.7
2017-Oct-02 12:00N 16°30' W 062°04'611.7
2017-Oct-02 11:30N 16°33' W 061°58'1411.9
2017-Oct-02 10:21N 16°38' W 061°45'411.8
2017-Oct-02 10:00N 16°39' W 061°41'3212.0
2017-Oct-02 07:21N 16°51' W 061°11'412.1
2017-Oct-02 07:00N 16°53' W 061°06'  
2017-Sep-23 22:13N 32°47' W 018°07'413.6
2017-Sep-23 21:55N 32°49' W 018°02'613.6
2017-Sep-23 21:30N 32°51' W 017°56'813.8
2017-Sep-23 20:54N 32°54' W 017°47'  

Dump ship's entire track history